createdAt,value
2017-12-15T00:02:27.833Z,2.70
2017-12-15T00:04:56.236Z,2.60
2017-12-15T00:07:25.098Z,2.50
2017-12-15T00:09:53.516Z,2.40
2017-12-15T00:12:21.954Z,2.30
2017-12-15T00:14:50.540Z,2.10
2017-12-15T00:17:19.726Z,2.00
2017-12-15T00:19:48.151Z,1.90
2017-12-15T00:22:16.592Z,1.80
2017-12-15T00:24:45.007Z,1.70
2017-12-15T00:27:13.486Z,1.60
2017-12-15T00:29:43.116Z,1.60
2017-12-15T00:32:11.652Z,1.60
2017-12-15T00:34:40.628Z,1.60
2017-12-15T00:37:09.073Z,1.50
2017-12-15T00:39:37.461Z,1.40
2017-12-15T00:42:05.896Z,1.30
2017-12-15T00:44:34.367Z,1.20
2017-12-15T00:47:02.784Z,1.10
2017-12-15T00:49:31.230Z,1.10
2017-12-15T00:52:00.560Z,1.10
2017-12-15T00:54:28.950Z,1.10
2017-12-15T00:56:58.210Z,1.00
2017-12-15T00:59:27.161Z,1.00
2017-12-15T01:01:55.574Z,1.00
2017-12-15T01:04:23.946Z,1.00
2017-12-15T01:06:52.686Z,1.00
2017-12-15T01:09:21.116Z,0.90
2017-12-15T01:11:49.517Z,1.00
2017-12-15T01:14:18.873Z,1.00
2017-12-15T01:16:47.269Z,1.00
2017-12-15T01:19:15.678Z,1.10
2017-12-15T01:21:45.122Z,1.10
2017-12-15T01:24:13.525Z,1.10
2017-12-15T01:26:42.874Z,1.10
2017-12-15T01:29:11.478Z,1.10
2017-12-15T01:31:39.869Z,1.10
2017-12-15T01:34:08.284Z,1.10
2017-12-15T01:36:36.916Z,1.10
2017-12-15T01:39:05.339Z,1.20
2017-12-15T01:41:33.792Z,1.30
2017-12-15T01:44:02.400Z,1.30
2017-12-15T01:46:30.845Z,1.30
2017-12-15T01:48:59.238Z,1.40
2017-12-15T01:51:27.719Z,1.40
2017-12-15T01:53:56.165Z,1.40
2017-12-15T01:56:24.618Z,1.40
2017-12-15T01:58:53.218Z,1.40
2017-12-15T02:01:22.468Z,1.40
2017-12-15T02:03:50.901Z,1.50
2017-12-15T02:06:20.252Z,1.40
2017-12-15T02:08:48.644Z,1.40
2017-12-15T02:11:17.103Z,1.50
2017-12-15T02:13:45.542Z,1.50
2017-12-15T02:16:13.949Z,1.50
2017-12-15T02:18:42.347Z,1.40
2017-12-15T02:21:10.837Z,1.50
2017-12-15T02:23:39.268Z,1.50
2017-12-15T02:26:07.706Z,1.50
2017-12-15T02:28:36.278Z,1.50
2017-12-15T02:31:04.751Z,1.50
2017-12-15T02:33:33.197Z,1.50
2017-12-15T02:36:02.134Z,1.50
2017-12-15T02:38:30.571Z,1.50
2017-12-15T02:40:58.986Z,1.50
2017-12-15T02:43:27.468Z,1.60
2017-12-15T02:45:55.914Z,1.50
2017-12-15T02:48:24.331Z,1.50
2017-12-15T02:50:52.873Z,1.50
2017-12-15T02:53:21.288Z,1.50
2017-12-15T02:55:49.688Z,1.40
2017-12-15T02:58:18.211Z,1.40
2017-12-15T03:00:46.745Z,1.50
2017-12-15T03:03:15.326Z,1.50
2017-12-15T03:05:44.081Z,1.40
2017-12-15T03:08:12.562Z,1.40
2017-12-15T03:10:41.033Z,1.40
2017-12-15T03:13:09.724Z,1.40
2017-12-15T03:15:38.142Z,1.40
2017-12-15T03:18:06.556Z,1.50
2017-12-15T03:20:35.836Z,1.50
2017-12-15T03:23:04.250Z,1.40
2017-12-15T03:25:32.698Z,1.50
2017-12-15T03:28:01.271Z,1.50
2017-12-15T03:30:29.687Z,1.50
2017-12-15T03:32:58.075Z,1.50
2017-12-15T03:35:26.655Z,1.50
2017-12-15T03:37:55.089Z,1.50
2017-12-15T03:40:23.513Z,1.50
2017-12-15T03:42:52.219Z,1.50
2017-12-15T03:45:21.368Z,1.50
2017-12-15T03:47:49.764Z,1.50
2017-12-15T03:50:19.006Z,1.60
2017-12-15T03:52:47.427Z,1.60
2017-12-15T03:55:15.817Z,1.60
2017-12-15T03:57:45.152Z,1.60
2017-12-15T04:00:13.587Z,1.60
2017-12-15T04:02:42.005Z,1.60
2017-12-15T04:05:10.858Z,1.70
2017-12-15T04:07:39.250Z,1.70
2017-12-15T04:10:07.667Z,1.70
2017-12-15T04:12:36.242Z,1.70
2017-12-15T04:15:04.755Z,1.60
2017-12-15T04:17:33.186Z,1.60
2017-12-15T04:20:02.444Z,1.60
2017-12-15T04:22:30.858Z,1.60
2017-12-15T04:25:00.124Z,1.60
2017-12-15T04:27:28.792Z,1.60
2017-12-15T04:29:57.230Z,1.60
2017-12-15T04:32:26.594Z,1.60
2017-12-15T04:34:55.278Z,1.60
2017-12-15T04:37:24.615Z,1.70
2017-12-15T04:39:53.992Z,1.70
2017-12-15T04:42:23.387Z,1.60
2017-12-15T04:44:51.846Z,1.60
2017-12-15T04:47:20.237Z,1.70
2017-12-15T04:49:49.040Z,1.60
2017-12-15T04:52:17.457Z,1.60
2017-12-15T04:54:45.871Z,1.50
2017-12-15T04:57:14.505Z,1.50
2017-12-15T04:59:42.945Z,1.30
2017-12-15T05:02:11.372Z,1.30
2017-12-15T05:04:39.984Z,1.30
2017-12-15T05:07:08.485Z,1.30
2017-12-15T05:09:36.900Z,1.40
2017-12-15T05:12:06.287Z,1.40
2017-12-15T05:14:34.734Z,1.40
2017-12-15T05:17:03.198Z,1.40
2017-12-15T05:19:31.807Z,1.40
2017-12-15T05:22:01.050Z,1.50
2017-12-15T05:24:30.211Z,1.60
2017-12-15T05:26:58.777Z,1.60
2017-12-15T05:29:27.512Z,1.70
2017-12-15T05:31:56.748Z,1.80
2017-12-15T05:34:25.487Z,1.70
2017-12-15T05:36:53.906Z,1.80
2017-12-15T05:39:22.335Z,1.80
2017-12-15T05:41:50.829Z,1.70
2017-12-15T05:44:19.258Z,1.70
2017-12-15T05:46:47.683Z,1.60
2017-12-15T05:49:16.336Z,1.60
2017-12-15T05:51:44.758Z,1.50
2017-12-15T05:54:13.992Z,1.40
2017-12-15T05:56:42.543Z,1.40
2017-12-15T05:59:11.685Z,1.40
2017-12-15T06:01:40.147Z,1.40
2017-12-15T06:04:08.723Z,1.50
2017-12-15T06:06:37.231Z,1.40
2017-12-15T06:09:05.908Z,1.30
2017-12-15T06:11:34.451Z,1.30
2017-12-15T06:14:03.669Z,1.30
2017-12-15T06:16:32.136Z,1.30
2017-12-15T06:19:01.469Z,1.30
2017-12-15T06:21:29.880Z,1.30
2017-12-15T06:23:58.261Z,1.40
2017-12-15T06:26:26.930Z,1.40
2017-12-15T06:28:55.339Z,1.30
2017-12-15T06:31:23.833Z,1.20
2017-12-15T06:33:52.360Z,1.20
2017-12-15T06:36:21.339Z,1.10
2017-12-15T06:38:49.831Z,1.00
2017-12-15T06:41:18.431Z,1.00
2017-12-15T06:43:49.319Z,1.00
2017-12-15T06:46:18.482Z,1.00
2017-12-15T06:48:46.934Z,1.00
2017-12-15T06:51:15.409Z,1.00
2017-12-15T06:53:43.861Z,1.00
2017-12-15T06:56:12.482Z,1.00
2017-12-15T06:58:40.931Z,1.00
2017-12-15T07:01:09.412Z,1.00
2017-12-15T07:03:38.645Z,1.10
2017-12-15T07:06:07.046Z,1.10
2017-12-15T07:08:35.553Z,1.00
2017-12-15T07:11:05.138Z,1.00
2017-12-15T07:13:33.555Z,1.00
2017-12-15T07:16:01.972Z,1.10
2017-12-15T07:18:31.356Z,1.00
2017-12-15T07:20:59.787Z,1.00
2017-12-15T07:23:29.386Z,1.10
2017-12-15T07:25:57.921Z,1.10
2017-12-15T07:28:26.301Z,1.00
2017-12-15T07:30:54.724Z,1.00
2017-12-15T07:33:23.531Z,1.00
2017-12-15T07:35:52.228Z,1.00
2017-12-15T07:38:20.613Z,1.10
2017-12-15T07:40:49.908Z,1.20
2017-12-15T07:43:19.096Z,1.20
2017-12-15T07:45:47.632Z,1.20
2017-12-15T07:48:16.382Z,1.20
2017-12-15T07:50:45.558Z,1.20
2017-12-15T07:53:13.999Z,1.20
2017-12-15T07:55:42.580Z,1.30
2017-12-15T07:58:11.051Z,1.30
2017-12-15T08:00:40.221Z,1.50
2017-12-15T08:03:09.423Z,1.60
2017-12-15T08:05:38.608Z,1.60
2017-12-15T08:08:07.780Z,1.70
2017-12-15T08:10:36.292Z,1.70
2017-12-15T08:13:05.783Z,1.70
2017-12-15T08:15:34.969Z,1.70
2017-12-15T08:18:03.785Z,1.70
2017-12-15T08:20:33.000Z,1.80
2017-12-15T08:23:01.489Z,1.70
2017-12-15T08:25:30.005Z,1.80
2017-12-15T08:27:58.409Z,1.80
2017-12-15T08:30:26.848Z,1.80
2017-12-15T08:32:55.440Z,1.70
2017-12-15T08:35:23.867Z,1.80
2017-12-15T08:37:53.084Z,1.80
2017-12-15T08:40:21.540Z,1.80
2017-12-15T08:42:50.739Z,1.90
2017-12-15T08:45:19.970Z,1.90
2017-12-15T08:47:49.061Z,1.90
2017-12-15T08:50:17.513Z,2.00
2017-12-15T08:52:46.983Z,2.00
2017-12-15T08:55:15.582Z,2.00
2017-12-15T08:57:44.052Z,2.10
2017-12-15T09:00:14.246Z,2.00
2017-12-15T09:02:42.723Z,2.10
2017-12-15T09:05:11.222Z,2.10
2017-12-15T09:07:39.614Z,2.20
2017-12-15T09:10:08.199Z,2.10
2017-12-15T09:12:37.061Z,2.10
2017-12-15T09:15:06.662Z,2.10
2017-12-15T09:17:35.139Z,2.20
2017-12-15T09:20:03.638Z,2.30
2017-12-15T09:22:32.833Z,2.40
2017-12-15T09:25:01.406Z,2.40
2017-12-15T09:27:29.901Z,2.40
2017-12-15T09:29:58.384Z,2.50
2017-12-15T09:32:27.181Z,2.60
2017-12-15T09:34:55.683Z,2.70
2017-12-15T09:37:24.281Z,2.70
2017-12-15T09:39:53.548Z,3.00
2017-12-15T09:42:22.007Z,2.90
2017-12-15T09:44:50.447Z,3.00
2017-12-15T09:47:20.659Z,3.00
2017-12-15T09:49:49.091Z,3.00
2017-12-15T09:52:17.508Z,2.90
2017-12-15T09:54:45.983Z,3.00
2017-12-15T09:57:14.414Z,2.90
2017-12-15T09:59:42.939Z,2.90
2017-12-15T10:02:11.661Z,2.90
2017-12-15T10:04:40.119Z,2.80
2017-12-15T10:07:08.562Z,2.80
2017-12-15T10:09:37.237Z,2.80
2017-12-15T10:12:05.780Z,2.70
2017-12-15T10:14:34.291Z,2.80
2017-12-15T10:17:03.091Z,2.90
2017-12-15T10:19:31.471Z,2.80
2017-12-15T10:21:59.904Z,2.90
2017-12-15T10:24:28.485Z,2.90
2017-12-15T10:26:56.925Z,2.90
2017-12-15T10:29:26.133Z,2.90
2017-12-15T10:31:54.653Z,3.00
2017-12-15T10:34:23.865Z,3.10
2017-12-15T10:36:53.096Z,3.10
2017-12-15T10:39:21.954Z,3.10
2017-12-15T10:41:50.380Z,3.10
2017-12-15T10:44:18.775Z,3.10
2017-12-15T10:46:47.304Z,3.30
2017-12-15T10:49:16.604Z,4.00
2017-12-15T10:51:45.049Z,4.10
2017-12-15T10:54:13.704Z,3.70
2017-12-15T10:56:42.122Z,3.60
2017-12-15T10:59:10.581Z,3.70
2017-12-15T11:01:39.030Z,3.50
2017-12-15T11:04:07.765Z,3.30
2017-12-15T11:06:37.059Z,3.40
2017-12-15T11:09:05.549Z,3.40
2017-12-15T11:11:34.738Z,3.30
2017-12-15T11:14:03.210Z,3.30
2017-12-15T11:16:31.862Z,3.40
2017-12-15T11:19:00.403Z,3.30
2017-12-15T11:21:29.600Z,3.40
2017-12-15T11:23:58.948Z,3.40
2017-12-15T11:26:27.526Z,3.40
2017-12-15T11:28:56.004Z,3.40
2017-12-15T11:31:25.434Z,3.40
2017-12-15T11:33:53.990Z,3.40
2017-12-15T11:36:22.468Z,3.50
2017-12-15T11:38:51.211Z,3.60
2017-12-15T11:41:20.879Z,3.30
2017-12-15T11:43:49.595Z,3.30
2017-12-15T11:46:18.186Z,3.30
2017-12-15T11:48:46.651Z,3.40
2017-12-15T11:51:15.141Z,3.50
2017-12-15T11:53:45.082Z,3.40
2017-12-15T11:56:14.273Z,3.40
2017-12-15T11:58:43.441Z,3.40
2017-12-15T12:01:11.914Z,3.40
2017-12-15T12:03:40.380Z,3.30
2017-12-15T12:06:08.891Z,3.30
2017-12-15T12:08:37.840Z,3.30
2017-12-15T12:11:06.312Z,3.30
2017-12-15T12:13:35.297Z,3.40
2017-12-15T12:16:04.046Z,3.30
2017-12-15T12:18:34.872Z,3.40
2017-12-15T12:21:05.356Z,3.40
2017-12-15T12:23:33.755Z,3.40
2017-12-15T12:26:03.302Z,3.40
2017-12-15T12:28:31.908Z,3.40
2017-12-15T12:31:00.365Z,3.50
2017-12-15T12:33:29.511Z,3.60
2017-12-15T12:36:00.003Z,3.50
2017-12-15T12:38:28.507Z,3.50
2017-12-15T12:40:57.113Z,3.60
2017-12-15T12:43:26.508Z,3.70
2017-12-15T12:45:55.919Z,3.70
2017-12-15T12:48:25.178Z,3.80
2017-12-15T12:50:54.694Z,3.70
2017-12-15T12:53:23.208Z,3.70
2017-12-15T12:55:51.695Z,3.80
2017-12-15T12:58:20.469Z,3.70
2017-12-15T13:00:48.957Z,3.80
2017-12-15T13:03:17.429Z,3.80
2017-12-15T13:05:46.803Z,3.70
2017-12-15T13:08:16.435Z,3.50
2017-12-15T13:10:45.634Z,3.50
2017-12-15T13:13:14.258Z,3.50
2017-12-15T13:15:42.697Z,3.50
2017-12-15T13:18:11.136Z,3.50
2017-12-15T13:20:39.783Z,3.40
2017-12-15T13:23:08.345Z,3.40
2017-12-15T13:25:36.739Z,3.30
2017-12-15T13:28:05.188Z,3.40
2017-12-15T13:30:33.641Z,3.40
2017-12-15T13:33:02.134Z,3.40
2017-12-15T13:35:31.359Z,3.20
2017-12-15T13:38:01.803Z,3.30
2017-12-15T13:40:30.265Z,3.20
2017-12-15T13:43:00.017Z,3.20
2017-12-15T13:45:28.836Z,3.20
2017-12-15T13:47:58.357Z,3.20
2017-12-15T13:50:27.663Z,3.30
2017-12-15T13:52:56.139Z,3.30
2017-12-15T13:55:24.602Z,3.30
2017-12-15T13:57:54.253Z,3.10
2017-12-15T14:00:22.670Z,3.10
2017-12-15T14:02:51.079Z,3.00
2017-12-15T14:05:20.401Z,3.20
2017-12-15T14:07:49.461Z,3.20
2017-12-15T14:10:17.928Z,3.10
2017-12-15T14:12:46.360Z,3.10
2017-12-15T14:15:14.754Z,3.00
2017-12-15T14:17:43.142Z,3.10
2017-12-15T14:20:11.816Z,3.00
2017-12-15T14:22:40.330Z,3.00
2017-12-15T14:25:08.887Z,3.00
2017-12-15T14:27:37.526Z,2.90
2017-12-15T14:30:06.042Z,3.00
2017-12-15T14:32:34.501Z,2.90
2017-12-15T14:35:03.188Z,3.00
2017-12-15T14:37:31.681Z,2.90
2017-12-15T14:40:00.173Z,2.80
2017-12-15T14:42:28.972Z,2.80
2017-12-15T14:44:58.157Z,2.80
2017-12-15T14:47:26.831Z,2.80
2017-12-15T14:49:55.482Z,2.80
2017-12-15T14:52:23.982Z,2.80
2017-12-15T14:54:54.310Z,2.80
2017-12-15T14:57:23.973Z,2.70
2017-12-15T14:59:53.371Z,2.70
2017-12-15T15:02:22.438Z,2.60
2017-12-15T15:04:50.868Z,2.60
2017-12-15T15:07:19.295Z,2.60
2017-12-15T15:09:48.582Z,2.60
2017-12-15T15:12:17.835Z,2.50
2017-12-15T15:14:46.272Z,2.40
2017-12-15T15:17:14.767Z,2.40
2017-12-15T15:19:44.342Z,2.30
2017-12-15T15:22:12.925Z,2.30
2017-12-15T15:24:41.461Z,2.30
2017-12-15T15:27:10.766Z,2.20
2017-12-15T15:29:39.203Z,2.30
2017-12-15T15:32:08.900Z,2.20
2017-12-15T15:34:38.223Z,2.10
2017-12-15T15:37:07.040Z,2.10
2017-12-15T15:39:35.518Z,2.10
2017-12-15T15:42:04.475Z,2.00
2017-12-15T15:44:33.013Z,2.00
2017-12-15T15:47:01.490Z,2.10
2017-12-15T15:49:30.230Z,2.20
2017-12-15T15:51:58.738Z,2.30
2017-12-15T15:54:27.230Z,2.30
2017-12-15T15:56:56.130Z,2.20
2017-12-15T15:59:24.604Z,2.30
2017-12-15T16:01:53.228Z,2.20
2017-12-15T16:04:22.686Z,2.20
2017-12-15T16:06:51.167Z,2.20
2017-12-15T16:09:19.709Z,2.10
2017-12-15T16:11:48.334Z,2.10
2017-12-15T16:14:16.824Z,2.10
2017-12-15T16:16:45.280Z,2.10
2017-12-15T16:19:13.886Z,2.10
2017-12-15T16:21:42.301Z,2.10
2017-12-15T16:24:10.748Z,2.10
2017-12-15T16:26:40.848Z,2.10
2017-12-15T16:29:09.558Z,2.10
2017-12-15T16:31:37.972Z,2.00
2017-12-15T16:34:06.489Z,2.00
2017-12-15T16:36:34.972Z,2.00
2017-12-15T16:39:03.492Z,2.00
2017-12-15T16:41:32.128Z,2.00
2017-12-15T16:44:00.549Z,2.10
2017-12-15T16:46:29.106Z,2.10
2017-12-15T16:48:57.609Z,2.10
2017-12-15T16:51:26.457Z,2.00
2017-12-15T16:53:54.906Z,2.00
2017-12-15T16:56:25.003Z,2.20
2017-12-15T16:58:53.461Z,2.20
2017-12-15T17:01:22.730Z,2.10
2017-12-15T17:03:51.729Z,2.10
2017-12-15T17:06:20.229Z,2.10
2017-12-15T17:08:48.734Z,2.10
2017-12-15T17:11:17.853Z,2.00
2017-12-15T17:13:47.101Z,2.00
2017-12-15T17:16:15.634Z,2.00
2017-12-15T17:18:44.885Z,2.10
2017-12-15T17:21:13.320Z,2.10
2017-12-15T17:23:42.589Z,2.10
2017-12-15T17:26:12.218Z,2.20
2017-12-15T17:28:41.502Z,2.20
2017-12-15T17:31:10.211Z,2.20
2017-12-15T17:33:39.504Z,2.10
2017-12-15T17:36:08.773Z,2.20
2017-12-15T17:38:37.203Z,2.20
2017-12-15T17:41:06.044Z,2.10
2017-12-15T17:43:34.524Z,2.10
2017-12-15T17:46:02.938Z,2.20
2017-12-15T17:48:32.245Z,2.20
2017-12-15T17:51:00.670Z,2.20
2017-12-15T17:53:29.150Z,2.20
2017-12-15T17:55:57.784Z,2.30
2017-12-15T17:58:26.993Z,2.30
2017-12-15T18:00:55.433Z,2.30
2017-12-15T18:03:23.949Z,2.30
2017-12-15T18:05:53.173Z,2.10
2017-12-15T18:08:21.589Z,2.10
2017-12-15T18:10:50.082Z,2.20
2017-12-15T18:13:18.502Z,2.20
2017-12-15T18:15:46.947Z,2.20
2017-12-15T18:18:15.954Z,2.20
2017-12-15T18:20:45.110Z,2.10
2017-12-15T18:23:13.549Z,2.10
2017-12-15T18:25:42.139Z,2.10
2017-12-15T18:28:10.633Z,2.20
2017-12-15T18:30:40.140Z,2.20
2017-12-15T18:33:08.754Z,2.20
2017-12-15T18:35:37.211Z,2.30
2017-12-15T18:38:05.658Z,2.30
2017-12-15T18:40:34.951Z,2.30
2017-12-15T18:43:04.194Z,2.30
2017-12-15T18:45:32.621Z,2.30
2017-12-15T18:48:01.318Z,2.30
2017-12-15T18:50:29.805Z,2.30
2017-12-15T18:52:58.227Z,2.20
2017-12-15T18:55:26.926Z,2.20
2017-12-15T18:57:55.366Z,2.20
2017-12-15T19:00:23.850Z,2.20
2017-12-15T19:02:52.645Z,2.30
2017-12-15T19:05:21.887Z,2.30
2017-12-15T19:07:50.382Z,2.30
2017-12-15T19:10:19.752Z,2.40
2017-12-15T19:12:48.216Z,2.40
2017-12-15T19:15:17.019Z,2.30
2017-12-15T19:17:45.670Z,2.40
2017-12-15T19:20:14.495Z,2.40
2017-12-15T19:22:42.929Z,2.30
2017-12-15T19:25:11.408Z,2.30
2017-12-15T19:27:39.871Z,2.40
2017-12-15T19:30:09.092Z,2.40
2017-12-15T19:32:37.860Z,2.40
2017-12-15T19:35:07.353Z,2.40
2017-12-15T19:37:36.649Z,2.40
2017-12-15T19:40:05.352Z,2.40
2017-12-15T19:42:34.608Z,2.30
2017-12-15T19:45:03.121Z,2.30
2017-12-15T19:47:31.799Z,2.30
2017-12-15T19:50:00.995Z,2.30
2017-12-15T19:52:29.420Z,2.20
2017-12-15T19:54:58.057Z,2.20
2017-12-15T19:57:26.523Z,2.20
2017-12-15T19:59:54.992Z,2.20
2017-12-15T20:02:23.622Z,2.30
2017-12-15T20:04:52.892Z,2.20
2017-12-15T20:07:21.354Z,2.20
2017-12-15T20:09:50.306Z,2.20
2017-12-15T20:12:18.726Z,2.20
2017-12-15T20:14:47.207Z,2.20
2017-12-15T20:17:15.730Z,2.20
2017-12-15T20:19:44.211Z,2.10
2017-12-15T20:22:13.500Z,2.20
2017-12-15T20:24:42.174Z,2.20
2017-12-15T20:27:10.653Z,2.30
2017-12-15T20:29:39.138Z,2.30
2017-12-15T20:32:07.782Z,2.30
2017-12-15T20:34:36.609Z,2.30
2017-12-15T20:37:05.176Z,2.20
2017-12-15T20:39:33.789Z,2.10
2017-12-15T20:42:02.345Z,2.20
2017-12-15T20:44:30.828Z,2.10
2017-12-15T20:47:00.283Z,2.20
2017-12-15T20:49:28.704Z,2.20
2017-12-15T20:51:57.142Z,2.20
2017-12-15T20:54:26.471Z,2.10
2017-12-15T20:56:54.934Z,2.10
2017-12-15T20:59:23.478Z,2.20
2017-12-15T21:01:52.087Z,2.20
2017-12-15T21:04:21.344Z,2.20
2017-12-15T21:06:49.801Z,2.20
2017-12-15T21:09:19.365Z,2.20
2017-12-15T21:11:48.630Z,2.20
2017-12-15T21:14:17.112Z,2.20
2017-12-15T21:16:45.609Z,2.20
2017-12-15T21:19:14.016Z,2.20
2017-12-15T21:21:43.255Z,2.30
2017-12-15T21:24:12.047Z,2.30
2017-12-15T21:26:40.478Z,2.30
2017-12-15T21:29:09.642Z,2.30
2017-12-15T21:31:38.178Z,2.30
2017-12-15T21:34:06.595Z,2.40
2017-12-15T21:36:35.054Z,2.40
2017-12-15T21:39:04.825Z,2.40
2017-12-15T21:41:33.994Z,2.30
2017-12-15T21:44:02.465Z,2.30
2017-12-15T21:46:30.941Z,2.40
2017-12-15T21:48:59.465Z,2.40
2017-12-15T21:51:28.668Z,2.50
2017-12-15T21:53:58.270Z,2.40
2017-12-15T21:56:27.435Z,2.50
2017-12-15T21:58:55.870Z,2.40
2017-12-15T22:01:25.555Z,2.40
2017-12-15T22:03:54.726Z,2.40
2017-12-15T22:06:23.136Z,2.40
2017-12-15T22:08:52.477Z,2.40
2017-12-15T22:11:20.941Z,2.40
2017-12-15T22:13:49.534Z,2.40
2017-12-15T22:16:18.129Z,2.30
2017-12-15T22:18:46.558Z,2.30
2017-12-15T22:21:15.778Z,2.20
2017-12-15T22:23:44.260Z,2.20
2017-12-15T22:26:12.692Z,2.20
2017-12-15T22:28:41.113Z,2.20
2017-12-15T22:31:09.697Z,2.20
2017-12-15T22:33:38.921Z,2.30
2017-12-15T22:36:07.308Z,2.30
2017-12-15T22:38:36.458Z,2.30
2017-12-15T22:41:05.742Z,2.20
2017-12-15T22:43:34.206Z,2.20
2017-12-15T22:46:02.693Z,2.30
2017-12-15T22:48:31.087Z,2.30
2017-12-15T22:50:59.556Z,2.30
2017-12-15T22:53:28.023Z,2.30
2017-12-15T22:55:56.457Z,2.30
2017-12-15T22:58:24.912Z,2.30
2017-12-15T23:00:53.496Z,2.30
2017-12-15T23:03:21.976Z,2.30
2017-12-15T23:05:51.144Z,2.30
2017-12-15T23:08:19.745Z,2.30
2017-12-15T23:10:48.182Z,2.20
2017-12-15T23:13:17.383Z,2.10
2017-12-15T23:15:46.024Z,2.10
2017-12-15T23:18:15.237Z,2.10
2017-12-15T23:20:44.369Z,2.10
2017-12-15T23:23:13.626Z,2.10
2017-12-15T23:25:42.050Z,2.10
2017-12-15T23:28:10.760Z,2.10
2017-12-15T23:30:39.424Z,2.00
2017-12-15T23:33:07.839Z,2.00
2017-12-15T23:35:36.283Z,1.90
2017-12-15T23:38:04.921Z,2.10
2017-12-15T23:40:34.153Z,1.90
2017-12-15T23:43:03.473Z,1.90
2017-12-15T23:45:32.074Z,1.80
2017-12-15T23:48:00.577Z,1.80
2017-12-15T23:50:29.794Z,1.70
2017-12-15T23:52:58.705Z,1.70
2017-12-15T23:55:39.125Z,1.70
2017-12-15T23:58:08.514Z,1.80
